createdAt,value
2022-10-02T00:01:16.713Z,55.25
2022-10-02T00:03:45.559Z,54.79
2022-10-02T00:06:23.154Z,55.05
2022-10-02T00:08:56.969Z,55.05
2022-10-02T00:11:33.885Z,55.39
2022-10-02T00:14:03.592Z,57.13
2022-10-02T00:16:38.469Z,56.47
2022-10-02T00:19:06.125Z,55.42
2022-10-02T00:21:38.180Z,55.78
2022-10-02T00:24:13.540Z,56.02
2022-10-02T00:26:48.004Z,55.02
2022-10-02T00:29:26.422Z,55.62
2022-10-02T00:32:12.197Z,55.98
2022-10-02T00:34:47.669Z,55.19
2022-10-02T00:37:28.145Z,55.96
2022-10-02T00:40:03.603Z,57.53
2022-10-02T00:42:53.157Z,58.15
2022-10-02T00:45:26.078Z,59.07
2022-10-02T00:48:11.198Z,58.12
2022-10-02T00:50:50.337Z,57.37
2022-10-02T00:53:31.925Z,57.05
2022-10-02T00:56:27.978Z,57.08
2022-10-02T00:59:12.564Z,55.67
2022-10-02T01:02:06.080Z,55.60
2022-10-02T01:04:38.075Z,57.21
2022-10-02T01:07:08.759Z,56.60
2022-10-02T01:09:36.660Z,57.52
2022-10-02T01:12:03.848Z,56.94
2022-10-02T01:14:35.354Z,56.00
2022-10-02T01:17:02.884Z,57.35
2022-10-02T01:19:39.037Z,57.54
2022-10-02T01:22:14.453Z,56.94
2022-10-02T01:24:52.377Z,57.48
2022-10-02T01:27:19.507Z,57.47
2022-10-02T01:29:51.210Z,56.85
2022-10-02T01:32:18.449Z,57.89
2022-10-02T01:34:45.903Z,57.48
2022-10-02T01:37:12.919Z,55.92
2022-10-02T01:39:40.466Z,56.68
2022-10-02T01:42:07.215Z,58.76
2022-10-02T01:44:34.051Z,59.54
2022-10-02T01:47:15.577Z,58.67
2022-10-02T01:50:17.413Z,58.22
2022-10-02T01:53:03.896Z,58.18
2022-10-02T01:56:07.899Z,57.70
2022-10-02T01:58:41.207Z,58.60
2022-10-02T02:01:22.310Z,58.14
2022-10-02T02:04:01.180Z,57.68
2022-10-02T02:06:30.912Z,58.19
2022-10-02T02:09:01.991Z,58.70
2022-10-02T02:11:29.838Z,59.72
2022-10-02T02:14:05.180Z,59.31
2022-10-02T02:16:41.305Z,59.50
2022-10-02T02:19:23.030Z,57.80
2022-10-02T02:22:08.308Z,56.86
2022-10-02T02:24:41.001Z,56.82
2022-10-02T02:27:14.068Z,56.50
2022-10-02T02:29:44.157Z,56.84
2022-10-02T02:32:16.529Z,57.32
2022-10-02T02:34:49.800Z,59.45
2022-10-02T02:37:20.364Z,59.48
2022-10-02T02:39:54.828Z,59.49
2022-10-02T02:42:26.258Z,58.11
2022-10-02T02:45:02.646Z,58.03
2022-10-02T02:47:34.611Z,57.53
2022-10-02T02:50:11.608Z,58.89
2022-10-02T02:52:47.665Z,59.44
2022-10-02T02:55:28.043Z,58.67
2022-10-02T02:58:12.947Z,58.47
2022-10-02T03:00:40.382Z,59.00
2022-10-02T03:03:07.082Z,57.92
2022-10-02T03:05:36.267Z,56.51
2022-10-02T03:08:15.364Z,56.92
2022-10-02T03:11:11.538Z,56.33
2022-10-02T03:14:15.435Z,56.83
2022-10-02T03:17:07.789Z,56.52
2022-10-02T03:19:56.295Z,56.36
2022-10-02T03:22:49.948Z,55.23
2022-10-02T03:25:38.275Z,54.81
2022-10-02T03:28:37.264Z,54.92
2022-10-02T03:31:08.595Z,54.51
2022-10-02T03:33:38.340Z,53.96
2022-10-02T03:36:05.356Z,56.36
2022-10-02T03:38:33.844Z,55.35
2022-10-02T03:41:00.445Z,54.88
2022-10-02T03:43:29.302Z,54.64
2022-10-02T03:45:56.841Z,54.30
2022-10-02T03:48:24.273Z,54.73
2022-10-02T03:50:51.003Z,53.92
2022-10-02T03:53:24.712Z,55.66
2022-10-02T03:56:02.940Z,54.04
2022-10-02T03:58:30.209Z,54.36
2022-10-02T04:01:03.056Z,53.94
2022-10-02T04:03:51.435Z,53.54
2022-10-02T04:06:53.159Z,53.94
2022-10-02T04:09:30.680Z,54.41
2022-10-02T04:12:10.916Z,55.01
2022-10-02T04:14:43.075Z,53.36
2022-10-02T04:17:20.577Z,53.40
2022-10-02T04:19:55.870Z,54.00
2022-10-02T04:22:47.821Z,53.19
2022-10-02T04:25:24.970Z,53.14
2022-10-02T04:27:59.606Z,54.25
2022-10-02T04:30:26.273Z,54.16
2022-10-02T04:32:53.952Z,54.17
2022-10-02T04:35:33.853Z,53.48
2022-10-02T04:38:04.080Z,52.74
2022-10-02T04:40:50.319Z,53.51
2022-10-02T04:43:32.268Z,53.17
2022-10-02T04:46:24.958Z,52.88
2022-10-02T04:48:57.380Z,52.82
2022-10-02T04:51:42.032Z,53.19
2022-10-02T04:54:38.407Z,53.05
2022-10-02T04:57:27.425Z,53.73
2022-10-02T05:00:11.384Z,53.69
2022-10-02T05:02:47.336Z,53.73
2022-10-02T05:05:38.733Z,54.59
2022-10-02T05:08:29.563Z,54.75
2022-10-02T05:11:14.731Z,55.00
2022-10-02T05:13:53.960Z,54.80
2022-10-02T05:16:51.076Z,54.95
2022-10-02T05:19:36.846Z,55.82
2022-10-02T05:22:18.357Z,56.26
2022-10-02T05:24:50.519Z,55.81
2022-10-02T05:27:34.487Z,55.35
2022-10-02T05:30:16.085Z,55.69
2022-10-02T05:33:05.155Z,56.57
2022-10-02T05:36:07.910Z,55.97
2022-10-02T05:38:57.632Z,56.16
2022-10-02T05:41:24.540Z,56.46
2022-10-02T05:44:04.307Z,57.11
2022-10-02T05:46:36.747Z,56.21
2022-10-02T05:49:14.958Z,56.90
2022-10-02T05:51:59.584Z,57.08
2022-10-02T05:54:37.179Z,57.70
2022-10-02T05:57:27.422Z,58.32
2022-10-02T06:00:19.094Z,57.68
2022-10-02T06:02:45.728Z,57.49
2022-10-02T06:05:24.366Z,56.50
2022-10-02T06:07:56.326Z,56.91
2022-10-02T06:10:35.921Z,58.93
2022-10-02T06:13:21.894Z,59.88
2022-10-02T06:16:00.108Z,57.18
2022-10-02T06:18:31.429Z,56.56
2022-10-02T06:21:10.643Z,56.37
2022-10-02T06:23:44.671Z,52.38
2022-10-02T06:26:17.655Z,51.62
2022-10-02T06:28:51.137Z,51.21
2022-10-02T06:31:45.026Z,50.75
2022-10-02T06:34:13.880Z,52.23
2022-10-02T06:36:49.493Z,52.59
2022-10-02T06:39:28.655Z,52.82
2022-10-02T06:42:08.171Z,51.91
2022-10-02T06:44:53.133Z,53.02
2022-10-02T06:47:57.351Z,52.77
2022-10-02T06:50:45.934Z,54.17
2022-10-02T06:53:30.294Z,53.48
2022-10-02T06:56:00.297Z,54.40
2022-10-02T06:58:41.971Z,53.85
2022-10-02T07:01:25.508Z,52.84
2022-10-02T07:04:04.083Z,52.95
2022-10-02T07:06:42.934Z,51.71
2022-10-02T07:09:34.739Z,45.85
2022-10-02T07:12:26.592Z,43.66
2022-10-02T07:15:44.590Z,42.25
2022-10-02T07:18:27.340Z,43.18
2022-10-02T07:20:54.609Z,42.74
2022-10-02T07:23:40.765Z,42.39
2022-10-02T07:26:26.410Z,42.52
2022-10-02T07:29:04.777Z,42.65
2022-10-02T07:32:05.530Z,42.39
2022-10-02T07:34:37.940Z,42.38
2022-10-02T07:37:25.889Z,43.27
2022-10-02T07:40:02.000Z,44.56
2022-10-02T07:42:31.716Z,45.15
2022-10-02T07:45:28.695Z,46.40
2022-10-02T07:48:04.900Z,46.34
2022-10-02T07:50:40.757Z,48.78
2022-10-02T07:53:39.025Z,47.75
2022-10-02T07:56:09.151Z,47.01
2022-10-02T07:58:41.743Z,49.44
2022-10-02T08:01:16.539Z,48.74
2022-10-02T08:03:48.883Z,48.45
2022-10-02T08:06:17.321Z,49.43
2022-10-02T08:08:56.419Z,50.80
2022-10-02T08:11:38.957Z,50.32
2022-10-02T08:14:14.933Z,50.98
2022-10-02T08:16:57.250Z,50.84
2022-10-02T08:19:33.354Z,51.06
2022-10-02T08:22:26.892Z,49.00
2022-10-02T08:25:01.426Z,50.24
2022-10-02T08:27:46.786Z,47.67
2022-10-02T08:30:14.425Z,48.76
2022-10-02T08:32:41.105Z,46.72
2022-10-02T08:35:16.639Z,45.27
2022-10-02T08:38:20.016Z,41.81
2022-10-02T08:41:08.076Z,40.12
2022-10-02T08:43:46.508Z,38.92
2022-10-02T08:46:23.346Z,38.57
2022-10-02T08:49:02.102Z,37.82
2022-10-02T08:51:51.047Z,38.06
2022-10-02T08:54:20.288Z,39.71
2022-10-02T08:57:19.405Z,39.76
2022-10-02T09:00:14.733Z,40.69
2022-10-02T09:02:47.409Z,40.44
2022-10-02T09:05:39.454Z,38.67
2022-10-02T09:08:35.770Z,38.48
2022-10-02T09:11:08.198Z,37.37
2022-10-02T09:14:02.620Z,36.99
2022-10-02T09:16:39.828Z,36.26
2022-10-02T09:19:44.838Z,36.80
2022-10-02T09:22:56.496Z,36.22
2022-10-02T09:25:55.509Z,36.16
2022-10-02T09:28:40.793Z,36.58
2022-10-02T09:31:53.297Z,36.03
2022-10-02T09:35:14.624Z,36.05
2022-10-02T09:38:07.040Z,35.79
2022-10-02T09:40:46.818Z,36.30
2022-10-02T09:43:45.826Z,37.68
2022-10-02T09:47:00.293Z,39.37
2022-10-02T09:49:51.908Z,40.66
2022-10-02T09:52:57.032Z,40.49
2022-10-02T09:55:35.283Z,40.13
2022-10-02T09:58:26.964Z,40.93
2022-10-02T10:01:34.931Z,40.05
2022-10-02T10:04:30.474Z,40.89
2022-10-02T10:07:42.979Z,41.39
2022-10-02T10:10:31.661Z,41.03
2022-10-02T10:13:26.258Z,41.73
2022-10-02T10:15:58.927Z,42.32
2022-10-02T10:18:57.489Z,44.48
2022-10-02T10:21:52.017Z,43.47
2022-10-02T10:24:31.301Z,44.29
2022-10-02T10:27:09.283Z,43.85
2022-10-02T10:29:58.398Z,44.92
2022-10-02T10:33:06.206Z,45.06
2022-10-02T10:36:36.411Z,44.26
2022-10-02T10:39:26.604Z,42.81
2022-10-02T10:42:44.741Z,44.69
2022-10-02T10:45:44.956Z,43.87
2022-10-02T10:48:23.788Z,43.81
2022-10-02T10:51:14.606Z,43.46
2022-10-02T10:54:13.606Z,44.78
2022-10-02T10:56:54.490Z,43.73
2022-10-02T10:59:33.747Z,44.82
2022-10-02T11:02:24.021Z,45.00
2022-10-02T11:05:12.794Z,44.65
2022-10-02T11:07:58.087Z,46.36
2022-10-02T11:10:47.809Z,45.37
2022-10-02T11:13:59.285Z,45.36
2022-10-02T11:16:58.871Z,44.87
2022-10-02T11:19:35.531Z,44.27
2022-10-02T11:22:39.553Z,43.69
2022-10-02T11:25:45.774Z,42.81
2022-10-02T11:28:47.918Z,43.03
2022-10-02T11:31:30.126Z,43.43
2022-10-02T11:34:24.566Z,43.90
2022-10-02T11:37:19.631Z,42.21
2022-10-02T11:40:16.933Z,42.55
2022-10-02T11:42:52.812Z,42.31
2022-10-02T11:45:53.028Z,42.71
2022-10-02T11:48:34.667Z,42.04
2022-10-02T11:51:26.220Z,42.17
2022-10-02T11:54:02.161Z,42.55
2022-10-02T11:57:00.485Z,43.17
2022-10-02T11:59:52.426Z,42.31
2022-10-02T12:02:28.465Z,42.58
2022-10-02T12:05:15.521Z,43.15
2022-10-02T12:07:52.396Z,43.04
2022-10-02T12:10:52.630Z,44.48
2022-10-02T12:13:38.255Z,44.93
2022-10-02T12:16:24.014Z,44.89
2022-10-02T12:19:09.512Z,44.64
2022-10-02T12:22:23.939Z,44.51
2022-10-02T12:25:38.206Z,44.08
2022-10-02T12:28:22.789Z,44.22
2022-10-02T12:31:12.258Z,42.31
2022-10-02T12:33:56.454Z,41.12
2022-10-02T12:36:46.848Z,41.36
2022-10-02T12:40:10.658Z,41.47
2022-10-02T12:42:55.618Z,42.66
2022-10-02T12:45:34.670Z,42.29
2022-10-02T12:48:26.062Z,42.21
2022-10-02T12:51:17.919Z,42.50
2022-10-02T12:54:19.260Z,43.35
2022-10-02T12:57:39.287Z,42.32
2022-10-02T13:00:16.184Z,43.31
2022-10-02T13:03:10.854Z,42.66
2022-10-02T13:06:01.926Z,42.38
2022-10-02T13:08:43.780Z,42.00
2022-10-02T13:11:44.788Z,41.83
2022-10-02T13:14:26.320Z,42.08
2022-10-02T13:17:28.638Z,41.97
2022-10-02T13:20:12.284Z,43.58
2022-10-02T13:23:07.605Z,43.28
2022-10-02T13:25:57.128Z,42.26
2022-10-02T13:28:29.784Z,42.68
2022-10-02T13:31:17.085Z,43.55
2022-10-02T13:34:02.150Z,43.05
2022-10-02T13:37:01.498Z,42.97
2022-10-02T13:40:03.940Z,42.69
2022-10-02T13:43:01.670Z,42.67
2022-10-02T13:45:49.712Z,43.61
2022-10-02T13:48:55.144Z,44.98
2022-10-02T13:51:55.857Z,44.33
2022-10-02T13:54:39.484Z,44.29
2022-10-02T13:57:41.444Z,46.17
2022-10-02T14:00:42.198Z,45.65
2022-10-02T14:03:46.874Z,44.50
2022-10-02T14:06:25.535Z,43.98
2022-10-02T14:09:08.047Z,45.11
2022-10-02T14:11:52.947Z,46.08
2022-10-02T14:14:43.888Z,47.29
2022-10-02T14:17:29.227Z,47.51
2022-10-02T14:20:22.710Z,46.31
2022-10-02T14:23:24.899Z,47.45
2022-10-02T14:26:13.260Z,45.41
2022-10-02T14:28:57.844Z,45.05
2022-10-02T14:32:01.197Z,45.85
2022-10-02T14:37:46.831Z,45.38
2022-10-02T14:40:17.173Z,44.94
2022-10-02T14:42:57.297Z,44.85
2022-10-02T14:46:03.109Z,44.70
2022-10-02T14:49:12.358Z,45.56
2022-10-02T14:52:12.365Z,46.26
2022-10-02T14:55:16.779Z,46.37
2022-10-02T14:58:03.142Z,44.99
2022-10-02T15:01:02.773Z,45.23
2022-10-02T15:03:56.459Z,45.69
2022-10-02T15:06:28.121Z,45.42
2022-10-02T15:09:00.832Z,44.61
2022-10-02T15:11:36.910Z,45.02
2022-10-02T15:14:13.752Z,45.09
2022-10-02T15:17:08.288Z,45.22
2022-10-02T15:19:47.748Z,44.52
2022-10-02T15:22:29.964Z,45.70
2022-10-02T15:25:17.780Z,45.77
2022-10-02T15:27:54.628Z,45.65
2022-10-02T15:30:23.525Z,45.68
2022-10-02T15:33:11.931Z,46.76
2022-10-02T15:35:54.577Z,47.17
2022-10-02T15:38:37.699Z,46.96
2022-10-02T15:41:32.044Z,46.20
2022-10-02T15:44:07.780Z,46.42
2022-10-02T15:46:49.876Z,45.85
2022-10-02T15:49:54.400Z,46.40
2022-10-02T15:52:39.717Z,46.25
2022-10-02T15:55:38.693Z,45.35
2022-10-02T15:58:17.041Z,46.95
2022-10-02T16:01:02.403Z,46.52
2022-10-02T16:03:48.301Z,46.91
2022-10-02T16:06:41.403Z,47.96
2022-10-02T16:09:50.082Z,46.88
2022-10-02T16:12:25.203Z,46.72
2022-10-02T16:15:13.989Z,47.17
2022-10-02T16:18:07.136Z,47.18
2022-10-02T16:21:02.033Z,47.66
2022-10-02T16:23:51.087Z,46.33
2022-10-02T16:26:59.359Z,46.99
2022-10-02T16:29:54.206Z,46.77
2022-10-02T16:32:51.813Z,46.97
2022-10-02T16:35:25.136Z,47.51
2022-10-02T16:38:18.404Z,48.24
2022-10-02T16:41:00.382Z,48.19
2022-10-02T16:44:11.788Z,48.94
2022-10-02T16:46:44.371Z,48.08
2022-10-02T16:49:17.317Z,48.26
2022-10-02T16:52:03.164Z,48.37
2022-10-02T16:54:29.631Z,46.99
2022-10-02T16:57:07.044Z,47.23
2022-10-02T16:59:51.712Z,47.00
2022-10-02T17:02:19.268Z,47.21
2022-10-02T17:05:15.828Z,46.97
2022-10-02T17:07:54.733Z,47.81
2022-10-02T17:10:32.833Z,47.34
2022-10-02T17:13:26.592Z,47.30
2022-10-02T17:15:59.148Z,46.56
2022-10-02T17:18:48.440Z,46.98
2022-10-02T17:21:44.521Z,46.80
2022-10-02T17:24:14.007Z,46.49
2022-10-02T17:26:53.653Z,46.91
2022-10-02T17:29:33.261Z,47.53
2022-10-02T17:32:01.449Z,47.15
2022-10-02T17:34:32.393Z,47.28
2022-10-02T17:37:25.504Z,47.36
2022-10-02T17:40:06.621Z,47.36
2022-10-02T17:43:26.826Z,47.71
2022-10-02T17:46:19.092Z,47.83
2022-10-02T17:49:08.626Z,47.23
2022-10-02T17:51:53.738Z,48.39
2022-10-02T17:54:45.778Z,49.08
2022-10-02T17:57:50.980Z,48.54
2022-10-02T18:00:24.332Z,47.51
2022-10-02T18:03:10.177Z,48.22
2022-10-02T18:06:13.929Z,48.44
2022-10-02T18:09:11.106Z,48.78
2022-10-02T18:11:55.773Z,49.45
2022-10-02T18:14:52.699Z,48.92
2022-10-02T18:17:51.603Z,49.59
2022-10-02T18:20:24.122Z,49.48
2022-10-02T18:22:59.238Z,49.83
2022-10-02T18:25:31.804Z,50.05
2022-10-02T18:28:12.792Z,50.48
2022-10-02T18:31:13.022Z,50.48
2022-10-02T18:33:50.111Z,49.60
2022-10-02T18:37:02.857Z,50.30
2022-10-02T18:40:03.605Z,51.03
2022-10-02T18:42:44.178Z,50.90
2022-10-02T18:45:45.155Z,50.61
2022-10-02T18:48:24.929Z,51.51
2022-10-02T18:51:10.060Z,51.08
2022-10-02T18:53:44.835Z,50.35
2022-10-02T18:56:12.714Z,50.85
2022-10-02T18:59:06.199Z,51.36
2022-10-02T19:01:51.173Z,51.06
2022-10-02T19:04:48.971Z,51.78
2022-10-02T19:07:23.939Z,50.70
2022-10-02T19:10:10.393Z,50.84
2022-10-02T19:12:43.537Z,51.01
2022-10-02T19:15:22.505Z,50.57
2022-10-02T19:18:06.881Z,50.29
2022-10-02T19:21:06.622Z,49.78
2022-10-02T19:23:46.286Z,49.51
2022-10-02T19:26:40.557Z,48.96
2022-10-02T19:29:25.911Z,48.49
2022-10-02T19:31:54.059Z,48.31
2022-10-02T19:34:25.594Z,47.75
2022-10-02T19:36:57.231Z,49.08
2022-10-02T19:39:23.759Z,48.70
2022-10-02T19:41:55.783Z,49.19
2022-10-02T19:44:47.901Z,49.30
2022-10-02T19:47:27.649Z,49.38
2022-10-02T19:49:56.859Z,49.15
2022-10-02T19:52:35.736Z,49.06
2022-10-02T19:55:16.087Z,50.11
2022-10-02T19:57:45.527Z,50.94
2022-10-02T20:00:17.702Z,50.08
2022-10-02T20:02:48.085Z,50.00
2022-10-02T20:05:21.230Z,48.82
2022-10-02T20:07:52.154Z,49.67
2022-10-02T20:10:26.599Z,49.72
2022-10-02T20:13:20.280Z,49.69
2022-10-02T20:16:41.030Z,49.84
2022-10-02T20:19:16.525Z,49.60
2022-10-02T20:21:48.419Z,49.86
2022-10-02T20:24:41.245Z,50.65
2022-10-02T20:27:26.161Z,50.36
2022-10-02T20:30:00.797Z,50.49
2022-10-02T20:32:37.180Z,50.80
2022-10-02T20:35:14.162Z,51.07
2022-10-02T20:37:43.057Z,52.06
2022-10-02T20:40:23.383Z,51.21
2022-10-02T20:42:59.857Z,51.35
2022-10-02T20:45:50.388Z,50.81
2022-10-02T20:49:06.450Z,51.68
2022-10-02T20:51:53.976Z,51.39
2022-10-02T20:54:45.549Z,51.43
2022-10-02T20:57:56.343Z,52.26
2022-10-02T21:00:24.985Z,52.50
2022-10-02T21:03:01.015Z,51.37
2022-10-02T21:05:49.565Z,51.70
2022-10-02T21:08:40.484Z,51.71
2022-10-02T21:11:35.618Z,51.79
2022-10-02T21:14:16.338Z,50.89
2022-10-02T21:17:03.316Z,50.42
2022-10-02T21:20:00.564Z,50.87
2022-10-02T21:22:59.866Z,51.21
2022-10-02T21:25:54.319Z,51.16
2022-10-02T21:28:42.516Z,51.14
2022-10-02T21:31:29.305Z,50.90
2022-10-02T21:34:08.709Z,51.37
2022-10-02T21:36:47.019Z,50.38
2022-10-02T21:39:33.499Z,50.68
2022-10-02T21:42:17.536Z,51.35
2022-10-02T21:44:54.401Z,51.50
2022-10-02T21:47:39.256Z,51.16
2022-10-02T21:50:31.504Z,51.41
2022-10-02T21:53:31.983Z,51.15
2022-10-02T21:56:34.551Z,51.85
2022-10-02T21:59:26.962Z,51.84
2022-10-02T22:02:19.344Z,53.94
2022-10-02T22:05:09.255Z,53.84
2022-10-02T22:08:21.427Z,52.79
2022-10-02T22:11:14.778Z,53.06
2022-10-02T22:13:45.717Z,53.19
2022-10-02T22:16:28.649Z,53.54
2022-10-02T22:19:41.173Z,53.06
2022-10-02T22:22:29.522Z,53.06
2022-10-02T22:25:36.384Z,53.87
2022-10-02T22:28:35.193Z,52.80
2022-10-02T22:31:07.757Z,52.89
2022-10-02T22:33:54.952Z,51.93
2022-10-02T22:36:37.833Z,52.26
2022-10-02T22:39:33.561Z,51.36
2022-10-02T22:42:05.278Z,52.10
2022-10-02T22:44:50.397Z,52.03
2022-10-02T22:47:35.710Z,52.23
2022-10-02T22:50:11.506Z,51.64
2022-10-02T22:52:49.527Z,51.50
2022-10-02T22:55:16.489Z,51.17
2022-10-02T22:58:05.619Z,51.19
2022-10-02T23:00:51.075Z,52.42
2022-10-02T23:03:23.256Z,52.63
2022-10-02T23:06:00.891Z,51.74
2022-10-02T23:08:33.277Z,51.40
2022-10-02T23:11:06.744Z,52.00
2022-10-02T23:13:50.827Z,50.90
2022-10-02T23:16:51.161Z,51.49
2022-10-02T23:19:38.788Z,51.44
2022-10-02T23:22:17.662Z,51.07
2022-10-02T23:24:57.415Z,50.44
2022-10-02T23:27:41.148Z,50.80
2022-10-02T23:30:18.082Z,51.23
2022-10-02T23:32:59.848Z,51.16
2022-10-02T23:35:36.109Z,51.69
2022-10-02T23:38:24.446Z,51.58
2022-10-02T23:41:28.735Z,52.34
2022-10-02T23:44:19.799Z,52.71
2022-10-02T23:47:02.492Z,51.65
2022-10-02T23:49:37.535Z,51.63
2022-10-02T23:52:15.852Z,51.63
2022-10-02T23:54:58.284Z,52.23
2022-10-02T23:57:50.977Z,52.18
